sensor_id;sensor_type;location;lat;lon;timestamp;P1;durP1;ratioP1;P2;durP2;ratioP2
33840;SDS011;20142;28.494;-16.312;2023-12-07T00:04:38;9.13;;;1.80;;
33840;SDS011;20142;28.494;-16.312;2023-12-07T00:09:39;9.57;;;2.10;;
33840;SDS011;20142;28.494;-16.312;2023-12-07T00:14:41;9.65;;;1.98;;
33840;SDS011;20142;28.494;-16.312;2023-12-07T00:19:43;18.38;;;1.90;;
33840;SDS011;20142;28.494;-16.312;2023-12-07T00:24:44;9.75;;;1.70;;
33840;SDS011;20142;28.494;-16.312;2023-12-07T00:29:46;9.00;;;1.30;;
33840;SDS011;20142;28.494;-16.312;2023-12-07T00:34:48;9.93;;;1.55;;
33840;SDS011;20142;28.494;-16.312;2023-12-07T00:39:50;7.63;;;0.70;;
33840;SDS011;20142;28.494;-16.312;2023-12-07T00:44:51;8.60;;;0.90;;
33840;SDS011;20142;28.494;-16.312;2023-12-07T00:49:53;6.45;;;1.10;;
33840;SDS011;20142;28.494;-16.312;2023-12-07T00:54:55;14.25;;;1.02;;
33840;SDS011;20142;28.494;-16.312;2023-12-07T00:59:56;6.45;;;1.30;;
33840;SDS011;20142;28.494;-16.312;2023-12-07T01:04:58;13.32;;;1.60;;
33840;SDS011;20142;28.494;-16.312;2023-12-07T01:10:00;11.50;;;1.20;;
33840;SDS011;20142;28.494;-16.312;2023-12-07T01:15:02;6.40;;;1.20;;
33840;SDS011;20142;28.494;-16.312;2023-12-07T01:20:05;12.32;;;1.40;;
33840;SDS011;20142;28.494;-16.312;2023-12-07T01:25:14;6.13;;;1.15;;
33840;SDS011;20142;28.494;-16.312;2023-12-07T01:30:20;10.40;;;1.98;;
33840;SDS011;20142;28.494;-16.312;2023-12-07T01:35:22;7.80;;;1.40;;
33840;SDS011;20142;28.494;-16.312;2023-12-07T01:40:24;6.45;;;1.00;;
33840;SDS011;20142;28.494;-16.312;2023-12-07T01:45:25;11.13;;;1.30;;
33840;SDS011;20142;28.494;-16.312;2023-12-07T01:50:27;10.20;;;1.52;;
33840;SDS011;20142;28.494;-16.312;2023-12-07T01:55:30;9.77;;;1.40;;
33840;SDS011;20142;28.494;-16.312;2023-12-07T02:00:33;6.97;;;1.15;;
33840;SDS011;20142;28.494;-16.312;2023-12-07T02:05:36;5.72;;;1.48;;
33840;SDS011;20142;28.494;-16.312;2023-12-07T02:10:44;9.83;;;1.80;;
33840;SDS011;20142;28.494;-16.312;2023-12-07T02:15:46;7.65;;;1.73;;
33840;SDS011;20142;28.494;-16.312;2023-12-07T02:26:20;8.23;;;2.35;;
33840;SDS011;20142;28.494;-16.312;2023-12-07T02:31:32;8.43;;;1.95;;
33840;SDS011;20142;28.494;-16.312;2023-12-07T02:36:34;9.23;;;2.35;;
33840;SDS011;20142;28.494;-16.312;2023-12-07T02:41:39;9.23;;;1.73;;
33840;SDS011;20142;28.494;-16.312;2023-12-07T02:46:42;6.20;;;1.50;;
33840;SDS011;20142;28.494;-16.312;2023-12-07T02:51:45;6.95;;;1.58;;
33840;SDS011;20142;28.494;-16.312;2023-12-07T02:56:48;11.48;;;1.60;;
33840;SDS011;20142;28.494;-16.312;2023-12-07T03:01:49;7.07;;;1.27;;
33840;SDS011;20142;28.494;-16.312;2023-12-07T03:06:51;7.88;;;1.40;;
33840;SDS011;20142;28.494;-16.312;2023-12-07T03:11:53;8.05;;;1.60;;
33840;SDS011;20142;28.494;-16.312;2023-12-07T03:16:54;8.23;;;1.38;;
33840;SDS011;20142;28.494;-16.312;2023-12-07T03:21:56;6.20;;;1.40;;
33840;SDS011;20142;28.494;-16.312;2023-12-07T03:26:58;6.93;;;1.63;;
33840;SDS011;20142;28.494;-16.312;2023-12-07T03:32:00;10.65;;;2.22;;
33840;SDS011;20142;28.494;-16.312;2023-12-07T03:37:01;12.25;;;1.55;;
33840;SDS011;20142;28.494;-16.312;2023-12-07T03:42:04;6.43;;;1.50;;
33840;SDS011;20142;28.494;-16.312;2023-12-07T03:47:05;6.43;;;1.33;;
33840;SDS011;20142;28.494;-16.312;2023-12-07T03:52:07;8.50;;;1.45;;
33840;SDS011;20142;28.494;-16.312;2023-12-07T03:57:09;5.60;;;1.40;;
33840;SDS011;20142;28.494;-16.312;2023-12-07T04:02:10;9.25;;;1.75;;
33840;SDS011;20142;28.494;-16.312;2023-12-07T04:07:12;7.97;;;1.40;;
33840;SDS011;20142;28.494;-16.312;2023-12-07T04:12:14;7.32;;;1.40;;
33840;SDS011;20142;28.494;-16.312;2023-12-07T04:17:15;9.02;;;1.27;;
33840;SDS011;20142;28.494;-16.312;2023-12-07T04:22:17;7.90;;;1.25;;
33840;SDS011;20142;28.494;-16.312;2023-12-07T04:27:19;6.32;;;1.40;;
33840;SDS011;20142;28.494;-16.312;2023-12-07T04:32:20;11.20;;;1.45;;
33840;SDS011;20142;28.494;-16.312;2023-12-07T04:37:22;14.80;;;1.40;;
33840;SDS011;20142;28.494;-16.312;2023-12-07T04:42:24;7.13;;;1.50;;
33840;SDS011;20142;28.494;-16.312;2023-12-07T04:47:26;6.72;;;1.27;;
33840;SDS011;20142;28.494;-16.312;2023-12-07T04:52:28;8.75;;;1.92;;
33840;SDS011;20142;28.494;-16.312;2023-12-07T04:57:29;10.63;;;1.52;;
33840;SDS011;20142;28.494;-16.312;2023-12-07T05:02:31;3.95;;;1.50;;
33840;SDS011;20142;28.494;-16.312;2023-12-07T05:07:33;12.63;;;1.70;;
33840;SDS011;20142;28.494;-16.312;2023-12-07T05:12:35;8.30;;;1.45;;
33840;SDS011;20142;28.494;-16.312;2023-12-07T05:17:36;10.48;;;1.85;;
33840;SDS011;20142;28.494;-16.312;2023-12-07T05:22:38;5.25;;;1.23;;
33840;SDS011;20142;28.494;-16.312;2023-12-07T05:27:40;8.32;;;1.65;;
33840;SDS011;20142;28.494;-16.312;2023-12-07T05:32:41;8.85;;;1.90;;
33840;SDS011;20142;28.494;-16.312;2023-12-07T05:37:43;7.10;;;1.35;;
33840;SDS011;20142;28.494;-16.312;2023-12-07T05:42:47;12.60;;;1.52;;
33840;SDS011;20142;28.494;-16.312;2023-12-07T05:47:51;7.07;;;1.70;;
33840;SDS011;20142;28.494;-16.312;2023-12-07T05:52:53;13.10;;;1.65;;
33840;SDS011;20142;28.494;-16.312;2023-12-07T05:57:55;7.95;;;1.60;;
33840;SDS011;20142;28.494;-16.312;2023-12-07T06:02:58;5.88;;;1.55;;
33840;SDS011;20142;28.494;-16.312;2023-12-07T06:08:00;5.78;;;1.25;;
33840;SDS011;20142;28.494;-16.312;2023-12-07T06:13:01;9.15;;;1.55;;
33840;SDS011;20142;28.494;-16.312;2023-12-07T06:18:04;11.13;;;1.67;;
33840;SDS011;20142;28.494;-16.312;2023-12-07T06:23:06;7.03;;;1.95;;
33840;SDS011;20142;28.494;-16.312;2023-12-07T06:28:07;16.73;;;3.05;;
33840;SDS011;20142;28.494;-16.312;2023-12-07T06:33:09;9.80;;;1.83;;
33840;SDS011;20142;28.494;-16.312;2023-12-07T06:38:11;12.38;;;2.08;;
33840;SDS011;20142;28.494;-16.312;2023-12-07T06:43:12;9.30;;;1.75;;
33840;SDS011;20142;28.494;-16.312;2023-12-07T06:48:14;4.95;;;1.35;;
33840;SDS011;20142;28.494;-16.312;2023-12-07T06:53:16;7.32;;;1.75;;
33840;SDS011;20142;28.494;-16.312;2023-12-07T06:58:19;8.73;;;2.58;;
33840;SDS011;20142;28.494;-16.312;2023-12-07T07:03:21;8.63;;;2.05;;
33840;SDS011;20142;28.494;-16.312;2023-12-07T07:08:23;8.07;;;2.08;;
33840;SDS011;20142;28.494;-16.312;2023-12-07T07:13:25;8.27;;;1.83;;
33840;SDS011;20142;28.494;-16.312;2023-12-07T07:18:27;6.65;;;2.05;;
33840;SDS011;20142;28.494;-16.312;2023-12-07T07:23:29;8.32;;;2.17;;
33840;SDS011;20142;28.494;-16.312;2023-12-07T07:28:31;11.15;;;2.88;;
33840;SDS011;20142;28.494;-16.312;2023-12-07T07:33:33;9.90;;;2.58;;
33840;SDS011;20142;28.494;-16.312;2023-12-07T07:38:34;8.63;;;2.42;;
33840;SDS011;20142;28.494;-16.312;2023-12-07T07:43:36;8.25;;;1.75;;
33840;SDS011;20142;28.494;-16.312;2023-12-07T07:48:38;13.75;;;2.53;;
33840;SDS011;20142;28.494;-16.312;2023-12-07T07:53:40;8.02;;;2.25;;
33840;SDS011;20142;28.494;-16.312;2023-12-07T07:58:41;12.32;;;2.30;;
33840;SDS011;20142;28.494;-16.312;2023-12-07T08:03:43;10.60;;;2.35;;
33840;SDS011;20142;28.494;-16.312;2023-12-07T08:08:45;13.35;;;2.50;;
33840;SDS011;20142;28.494;-16.312;2023-12-07T08:13:47;9.35;;;2.00;;
33840;SDS011;20142;28.494;-16.312;2023-12-07T08:18:51;7.20;;;2.08;;
33840;SDS011;20142;28.494;-16.312;2023-12-07T08:23:52;10.70;;;2.15;;
33840;SDS011;20142;28.494;-16.312;2023-12-07T08:28:54;10.98;;;2.10;;
33840;SDS011;20142;28.494;-16.312;2023-12-07T08:33:57;9.18;;;2.30;;
33840;SDS011;20142;28.494;-16.312;2023-12-07T08:38:59;11.50;;;2.50;;
33840;SDS011;20142;28.494;-16.312;2023-12-07T08:44:00;9.50;;;1.80;;
33840;SDS011;20142;28.494;-16.312;2023-12-07T08:49:02;10.50;;;2.20;;
33840;SDS011;20142;28.494;-16.312;2023-12-07T08:54:04;10.25;;;1.98;;
33840;SDS011;20142;28.494;-16.312;2023-12-07T08:59:06;10.95;;;2.35;;
33840;SDS011;20142;28.494;-16.312;2023-12-07T09:04:07;6.25;;;2.17;;
33840;SDS011;20142;28.494;-16.312;2023-12-07T09:09:09;9.05;;;2.45;;
33840;SDS011;20142;28.494;-16.312;2023-12-07T09:14:12;13.02;;;2.47;;
33840;SDS011;20142;28.494;-16.312;2023-12-07T09:19:14;8.95;;;2.60;;
33840;SDS011;20142;28.494;-16.312;2023-12-07T09:24:15;11.25;;;1.85;;
33840;SDS011;20142;28.494;-16.312;2023-12-07T09:29:17;9.20;;;1.88;;
33840;SDS011;20142;28.494;-16.312;2023-12-07T09:34:19;7.97;;;1.58;;
33840;SDS011;20142;28.494;-16.312;2023-12-07T09:39:21;8.23;;;1.35;;
33840;SDS011;20142;28.494;-16.312;2023-12-07T09:44:22;15.77;;;1.42;;
33840;SDS011;20142;28.494;-16.312;2023-12-07T09:49:24;6.82;;;1.05;;
33840;SDS011;20142;28.494;-16.312;2023-12-07T09:54:26;8.63;;;1.05;;
33840;SDS011;20142;28.494;-16.312;2023-12-07T09:59:30;5.75;;;0.63;;
33840;SDS011;20142;28.494;-16.312;2023-12-07T10:04:31;4.43;;;0.75;;
33840;SDS011;20142;28.494;-16.312;2023-12-07T10:09:33;8.13;;;0.80;;
33840;SDS011;20142;28.494;-16.312;2023-12-07T10:14:39;10.95;;;1.33;;
33840;SDS011;20142;28.494;-16.312;2023-12-07T10:19:41;6.20;;;0.80;;
33840;SDS011;20142;28.494;-16.312;2023-12-07T10:24:43;5.10;;;1.40;;
33840;SDS011;20142;28.494;-16.312;2023-12-07T10:29:44;7.30;;;0.77;;
33840;SDS011;20142;28.494;-16.312;2023-12-07T10:34:46;7.57;;;1.08;;
33840;SDS011;20142;28.494;-16.312;2023-12-07T10:39:48;5.22;;;0.80;;
33840;SDS011;20142;28.494;-16.312;2023-12-07T10:44:50;2.75;;;0.50;;
33840;SDS011;20142;28.494;-16.312;2023-12-07T10:49:54;5.05;;;0.63;;
33840;SDS011;20142;28.494;-16.312;2023-12-07T10:55:07;6.65;;;0.90;;
33840;SDS011;20142;28.494;-16.312;2023-12-07T11:00:18;5.70;;;1.15;;
33840;SDS011;20142;28.494;-16.312;2023-12-07T11:05:20;8.07;;;0.90;;
33840;SDS011;20142;28.494;-16.312;2023-12-07T11:10:25;7.45;;;0.60;;
33840;SDS011;20142;28.494;-16.312;2023-12-07T11:15:36;5.00;;;1.00;;
33840;SDS011;20142;28.494;-16.312;2023-12-07T11:20:39;6.82;;;0.98;;
33840;SDS011;20142;28.494;-16.312;2023-12-07T11:25:44;5.05;;;0.60;;
33840;SDS011;20142;28.494;-16.312;2023-12-07T11:30:47;6.13;;;0.80;;
33840;SDS011;20142;28.494;-16.312;2023-12-07T11:36:02;4.57;;;0.95;;
33840;SDS011;20142;28.494;-16.312;2023-12-07T11:41:06;4.68;;;0.95;;
33840;SDS011;20142;28.494;-16.312;2023-12-07T11:46:09;3.88;;;0.73;;
33840;SDS011;20142;28.494;-16.312;2023-12-07T11:51:12;7.15;;;2.30;;
33840;SDS011;20142;28.494;-16.312;2023-12-07T11:56:14;4.10;;;0.60;;
33840;SDS011;20142;28.494;-16.312;2023-12-07T12:01:19;5.18;;;0.60;;
33840;SDS011;20142;28.494;-16.312;2023-12-07T12:06:23;7.20;;;0.55;;
33840;SDS011;20142;28.494;-16.312;2023-12-07T12:11:25;2.90;;;0.88;;
33840;SDS011;20142;28.494;-16.312;2023-12-07T12:16:26;2.35;;;0.60;;
33840;SDS011;20142;28.494;-16.312;2023-12-07T12:21:28;5.88;;;0.80;;
33840;SDS011;20142;28.494;-16.312;2023-12-07T12:26:35;4.65;;;0.63;;
33840;SDS011;20142;28.494;-16.312;2023-12-07T12:31:38;6.35;;;1.15;;
33840;SDS011;20142;28.494;-16.312;2023-12-07T12:36:41;5.28;;;1.20;;
33840;SDS011;20142;28.494;-16.312;2023-12-07T12:41:44;5.95;;;1.13;;
33840;SDS011;20142;28.494;-16.312;2023-12-07T12:46:46;3.30;;;0.63;;
33840;SDS011;20142;28.494;-16.312;2023-12-07T12:51:47;5.90;;;0.63;;
33840;SDS011;20142;28.494;-16.312;2023-12-07T12:56:49;3.42;;;0.40;;
33840;SDS011;20142;28.494;-16.312;2023-12-07T13:01:51;4.32;;;0.70;;
33840;SDS011;20142;28.494;-16.312;2023-12-07T13:06:53;5.43;;;0.60;;
33840;SDS011;20142;28.494;-16.312;2023-12-07T13:11:55;4.75;;;0.70;;
33840;SDS011;20142;28.494;-16.312;2023-12-07T13:16:56;4.35;;;0.88;;
33840;SDS011;20142;28.494;-16.312;2023-12-07T13:21:58;9.00;;;1.08;;
33840;SDS011;20142;28.494;-16.312;2023-12-07T13:27:01;6.45;;;1.15;;
33840;SDS011;20142;28.494;-16.312;2023-12-07T13:32:03;11.63;;;1.20;;
33840;SDS011;20142;28.494;-16.312;2023-12-07T13:37:05;6.93;;;1.30;;
33840;SDS011;20142;28.494;-16.312;2023-12-07T13:42:07;6.30;;;1.20;;
33840;SDS011;20142;28.494;-16.312;2023-12-07T13:47:10;9.80;;;1.98;;
33840;SDS011;20142;28.494;-16.312;2023-12-07T13:52:12;7.82;;;1.65;;
33840;SDS011;20142;28.494;-16.312;2023-12-07T13:57:17;10.40;;;1.33;;
33840;SDS011;20142;28.494;-16.312;2023-12-07T14:02:24;7.18;;;0.80;;
33840;SDS011;20142;28.494;-16.312;2023-12-07T14:07:26;9.85;;;1.27;;
33840;SDS011;20142;28.494;-16.312;2023-12-07T14:12:28;6.20;;;1.23;;
33840;SDS011;20142;28.494;-16.312;2023-12-07T14:17:30;6.13;;;1.00;;
33840;SDS011;20142;28.494;-16.312;2023-12-07T14:22:37;6.22;;;0.77;;
33840;SDS011;20142;28.494;-16.312;2023-12-07T14:27:39;5.63;;;1.00;;
33840;SDS011;20142;28.494;-16.312;2023-12-07T14:32:41;5.32;;;1.10;;
33840;SDS011;20142;28.494;-16.312;2023-12-07T14:37:44;3.67;;;0.77;;
33840;SDS011;20142;28.494;-16.312;2023-12-07T14:42:46;5.40;;;1.30;;
33840;SDS011;20142;28.494;-16.312;2023-12-07T14:47:48;5.78;;;0.90;;
33840;SDS011;20142;28.494;-16.312;2023-12-07T14:52:49;9.65;;;1.30;;
33840;SDS011;20142;28.494;-16.312;2023-12-07T14:57:51;8.00;;;1.20;;
33840;SDS011;20142;28.494;-16.312;2023-12-07T15:02:53;4.80;;;1.00;;
33840;SDS011;20142;28.494;-16.312;2023-12-07T15:07:55;4.03;;;0.98;;
33840;SDS011;20142;28.494;-16.312;2023-12-07T15:12:57;7.63;;;1.05;;
33840;SDS011;20142;28.494;-16.312;2023-12-07T15:17:59;5.60;;;0.73;;
33840;SDS011;20142;28.494;-16.312;2023-12-07T15:23:00;5.72;;;1.20;;
33840;SDS011;20142;28.494;-16.312;2023-12-07T15:28:03;4.75;;;0.82;;
33840;SDS011;20142;28.494;-16.312;2023-12-07T15:33:04;6.07;;;0.98;;
33840;SDS011;20142;28.494;-16.312;2023-12-07T15:38:07;6.75;;;1.20;;
33840;SDS011;20142;28.494;-16.312;2023-12-07T15:43:11;2.92;;;0.65;;
33840;SDS011;20142;28.494;-16.312;2023-12-07T15:48:12;5.45;;;1.38;;
33840;SDS011;20142;28.494;-16.312;2023-12-07T15:53:14;8.48;;;1.13;;
33840;SDS011;20142;28.494;-16.312;2023-12-07T15:58:16;4.75;;;0.80;;
33840;SDS011;20142;28.494;-16.312;2023-12-07T16:03:18;7.05;;;1.02;;
33840;SDS011;20142;28.494;-16.312;2023-12-07T16:08:20;5.50;;;0.90;;
33840;SDS011;20142;28.494;-16.312;2023-12-07T16:13:23;3.88;;;0.90;;
33840;SDS011;20142;28.494;-16.312;2023-12-07T16:18:24;4.88;;;0.80;;
33840;SDS011;20142;28.494;-16.312;2023-12-07T16:23:26;5.57;;;1.08;;
33840;SDS011;20142;28.494;-16.312;2023-12-07T16:28:27;4.25;;;1.00;;
33840;SDS011;20142;28.494;-16.312;2023-12-07T16:33:29;3.60;;;1.02;;
33840;SDS011;20142;28.494;-16.312;2023-12-07T16:38:37;4.30;;;1.08;;
33840;SDS011;20142;28.494;-16.312;2023-12-07T16:43:43;7.32;;;1.00;;
33840;SDS011;20142;28.494;-16.312;2023-12-07T16:48:45;3.88;;;1.00;;
33840;SDS011;20142;28.494;-16.312;2023-12-07T16:53:47;8.05;;;1.38;;
33840;SDS011;20142;28.494;-16.312;2023-12-07T16:58:48;6.07;;;1.10;;
33840;SDS011;20142;28.494;-16.312;2023-12-07T17:03:51;6.13;;;1.10;;
33840;SDS011;20142;28.494;-16.312;2023-12-07T17:08:53;4.75;;;1.13;;
33840;SDS011;20142;28.494;-16.312;2023-12-07T17:13:56;7.25;;;1.25;;
33840;SDS011;20142;28.494;-16.312;2023-12-07T17:18:58;3.85;;;0.80;;
33840;SDS011;20142;28.494;-16.312;2023-12-07T17:24:00;7.70;;;1.45;;
33840;SDS011;20142;28.494;-16.312;2023-12-07T17:29:02;9.40;;;1.35;;
33840;SDS011;20142;28.494;-16.312;2023-12-07T17:34:04;5.82;;;1.00;;
33840;SDS011;20142;28.494;-16.312;2023-12-07T17:39:06;8.15;;;0.82;;
33840;SDS011;20142;28.494;-16.312;2023-12-07T17:44:07;5.22;;;0.77;;
33840;SDS011;20142;28.494;-16.312;2023-12-07T17:49:09;11.05;;;1.10;;
33840;SDS011;20142;28.494;-16.312;2023-12-07T17:54:12;7.82;;;1.20;;
33840;SDS011;20142;28.494;-16.312;2023-12-07T18:04:17;9.98;;;0.95;;
33840;SDS011;20142;28.494;-16.312;2023-12-07T18:09:18;8.55;;;0.82;;
33840;SDS011;20142;28.494;-16.312;2023-12-07T18:14:20;7.90;;;1.40;;
33840;SDS011;20142;28.494;-16.312;2023-12-07T18:19:22;5.50;;;0.93;;
33840;SDS011;20142;28.494;-16.312;2023-12-07T18:24:24;8.30;;;0.80;;
33840;SDS011;20142;28.494;-16.312;2023-12-07T18:29:25;7.95;;;1.08;;
33840;SDS011;20142;28.494;-16.312;2023-12-07T18:34:27;6.82;;;1.30;;
33840;SDS011;20142;28.494;-16.312;2023-12-07T18:39:29;6.57;;;0.90;;
33840;SDS011;20142;28.494;-16.312;2023-12-07T18:44:30;5.85;;;1.20;;
33840;SDS011;20142;28.494;-16.312;2023-12-07T18:49:32;8.65;;;0.90;;
33840;SDS011;20142;28.494;-16.312;2023-12-07T18:54:34;11.35;;;1.20;;
33840;SDS011;20142;28.494;-16.312;2023-12-07T18:59:39;3.63;;;0.75;;
33840;SDS011;20142;28.494;-16.312;2023-12-07T19:04:41;7.53;;;1.30;;
33840;SDS011;20142;28.494;-16.312;2023-12-07T19:09:43;9.00;;;1.52;;
33840;SDS011;20142;28.494;-16.312;2023-12-07T19:14:45;7.35;;;1.33;;
33840;SDS011;20142;28.494;-16.312;2023-12-07T19:19:47;7.03;;;1.10;;
33840;SDS011;20142;28.494;-16.312;2023-12-07T19:24:49;5.93;;;1.15;;
33840;SDS011;20142;28.494;-16.312;2023-12-07T19:29:51;13.18;;;1.27;;
33840;SDS011;20142;28.494;-16.312;2023-12-07T19:34:55;7.90;;;1.02;;
33840;SDS011;20142;28.494;-16.312;2023-12-07T19:39:58;7.15;;;1.08;;
33840;SDS011;20142;28.494;-16.312;2023-12-07T19:44:59;8.90;;;1.13;;
33840;SDS011;20142;28.494;-16.312;2023-12-07T19:50:01;4.88;;;0.90;;
33840;SDS011;20142;28.494;-16.312;2023-12-07T19:55:04;8.80;;;0.77;;
33840;SDS011;20142;28.494;-16.312;2023-12-07T20:00:10;9.32;;;1.30;;
33840;SDS011;20142;28.494;-16.312;2023-12-07T20:05:13;7.70;;;1.00;;
33840;SDS011;20142;28.494;-16.312;2023-12-07T20:10:15;9.23;;;0.80;;
33840;SDS011;20142;28.494;-16.312;2023-12-07T20:15:17;6.80;;;0.95;;
33840;SDS011;20142;28.494;-16.312;2023-12-07T20:20:18;8.00;;;1.27;;
33840;SDS011;20142;28.494;-16.312;2023-12-07T20:25:20;5.07;;;1.02;;
33840;SDS011;20142;28.494;-16.312;2023-12-07T20:30:22;10.07;;;1.30;;
33840;SDS011;20142;28.494;-16.312;2023-12-07T20:35:23;11.13;;;1.15;;
33840;SDS011;20142;28.494;-16.312;2023-12-07T20:40:26;8.55;;;1.17;;
33840;SDS011;20142;28.494;-16.312;2023-12-07T20:45:28;13.93;;;2.70;;
33840;SDS011;20142;28.494;-16.312;2023-12-07T20:50:30;11.05;;;1.83;;
33840;SDS011;20142;28.494;-16.312;2023-12-07T20:55:31;8.93;;;1.70;;
33840;SDS011;20142;28.494;-16.312;2023-12-07T21:00:34;9.45;;;1.15;;
33840;SDS011;20142;28.494;-16.312;2023-12-07T21:05:35;5.97;;;1.50;;
33840;SDS011;20142;28.494;-16.312;2023-12-07T21:10:37;8.32;;;1.23;;
33840;SDS011;20142;28.494;-16.312;2023-12-07T21:15:39;9.23;;;1.23;;
33840;SDS011;20142;28.494;-16.312;2023-12-07T21:20:41;8.43;;;1.77;;
33840;SDS011;20142;28.494;-16.312;2023-12-07T21:25:42;6.35;;;1.52;;
33840;SDS011;20142;28.494;-16.312;2023-12-07T21:30:45;8.60;;;1.48;;
33840;SDS011;20142;28.494;-16.312;2023-12-07T21:35:46;11.48;;;1.50;;
33840;SDS011;20142;28.494;-16.312;2023-12-07T21:40:48;5.95;;;1.50;;
33840;SDS011;20142;28.494;-16.312;2023-12-07T21:45:50;10.57;;;1.30;;
33840;SDS011;20142;28.494;-16.312;2023-12-07T21:50:52;18.55;;;2.13;;
33840;SDS011;20142;28.494;-16.312;2023-12-07T21:55:53;9.40;;;1.30;;
33840;SDS011;20142;28.494;-16.312;2023-12-07T22:00:55;7.85;;;2.25;;
33840;SDS011;20142;28.494;-16.312;2023-12-07T22:05:57;12.93;;;2.05;;
33840;SDS011;20142;28.494;-16.312;2023-12-07T22:10:58;10.52;;;3.92;;
33840;SDS011;20142;28.494;-16.312;2023-12-07T22:16:01;18.02;;;5.40;;
33840;SDS011;20142;28.494;-16.312;2023-12-07T22:21:03;9.30;;;3.08;;
33840;SDS011;20142;28.494;-16.312;2023-12-07T22:26:05;9.35;;;2.25;;
33840;SDS011;20142;28.494;-16.312;2023-12-07T22:31:07;13.40;;;1.85;;
33840;SDS011;20142;28.494;-16.312;2023-12-07T22:36:13;11.10;;;1.40;;
33840;SDS011;20142;28.494;-16.312;2023-12-07T22:41:15;6.75;;;1.05;;
33840;SDS011;20142;28.494;-16.312;2023-12-07T22:46:18;7.95;;;1.40;;
33840;SDS011;20142;28.494;-16.312;2023-12-07T22:51:20;6.85;;;0.88;;
33840;SDS011;20142;28.494;-16.312;2023-12-07T22:56:21;14.60;;;1.42;;
33840;SDS011;20142;28.494;-16.312;2023-12-07T23:01:23;10.82;;;1.48;;
33840;SDS011;20142;28.494;-16.312;2023-12-07T23:06:25;9.48;;;1.40;;
33840;SDS011;20142;28.494;-16.312;2023-12-07T23:11:27;10.80;;;1.52;;
33840;SDS011;20142;28.494;-16.312;2023-12-07T23:16:29;10.75;;;1.52;;
33840;SDS011;20142;28.494;-16.312;2023-12-07T23:21:34;8.57;;;1.15;;
33840;SDS011;20142;28.494;-16.312;2023-12-07T23:26:36;7.78;;;1.02;;
33840;SDS011;20142;28.494;-16.312;2023-12-07T23:31:38;10.20;;;1.27;;
33840;SDS011;20142;28.494;-16.312;2023-12-07T23:36:40;12.52;;;1.75;;
33840;SDS011;20142;28.494;-16.312;2023-12-07T23:41:42;9.93;;;1.83;;
33840;SDS011;20142;28.494;-16.312;2023-12-07T23:46:44;7.35;;;1.20;;
33840;SDS011;20142;28.494;-16.312;2023-12-07T23:51:46;9.25;;;1.58;;
33840;SDS011;20142;28.494;-16.312;2023-12-07T23:56:48;7.40;;;1.40;;
